GCXO

Tenerife Norte Airport

Tenerife Island, Spain
METAR GCXO 170000Z AUTO 34012KT 9999 SCT007/// BKN013/// BKN032/// 12/10 Q1024
Observed Flight Rules
Jan-17 @ 00:00 UTC (40 minutes ago) Marginal Visual Flight Rules
Wind Visibility Clouds
340° at 12 knots 10,000+ meters
  • Scattered at 700' AGL
  • Broken at 1,300' AGL
  • Broken at 3,200' AGL
Temperatures Readings
Current 12°C / 54°F
Dewpoint 10°C / 50°F
Humidity 88%
Altimeter 30.24" Hg
Pressure 1023.92 hPa
Elevation 632
METAR GCXO 170000Z AUTO 34012KT 9999 SCT007/// BKN013/// BKN032/// 12/10 Q1024
Observed Flight Rules
Jan-17 @ 00:00 UTC
(40 minutes ago)
MVFR
Wind Visibility
340° at 12 knots 10,000+ meters
Clouds
  • Scattered at 700' AGL
  • Broken at 1,300' AGL
  • Broken at 3,200' AGL
Temperature Dewpoint
12°C / 54°F 10°C / 50°F
Humidity Altimeter Pressure
88% 30.24" Hg 1023.92 hPa